Time;durP1;ratioP1;P1;durP2;ratioP2;P2;SDS_P1;SDS_P2;PMS_P1;PMS_P2;Temp;Humidity;BMP_temperature;BMP_pressure;BME280_temperature;BME280_humidity;BME280_pressure;Samples;Min_cycle;Max_cycle;Signal;HPM_P1;HPM_P2
2022/10/14 00:02:52;;;;;;;;;;;;;;;;;;2616350;54;20060;-64
2022/10/14 00:05:22;;;;;;;;;;;;;;;;;;2617061;54;20022;-64
2022/10/14 00:07:51;;;;;;;;;;;;;;;;;;2617268;54;20026;-64
2022/10/14 00:10:20;;;;;;;;;;;;;;;;;;2617034;47;20023;-64
2022/10/14 00:12:50;;;;;;;;;;;;;;;;;;2617016;54;20814;-64
2022/10/14 00:15:19;;;;;;;;;;;;;;;;;;2617335;54;20011;-64
2022/10/14 00:17:48;;;;;;;;;;;;;;;;;;2616899;54;20027;-64
2022/10/14 00:20:18;;;;;;;;;;;;;;;;;;2616860;54;20029;-65
2022/10/14 00:22:47;;;;;;;;;;;;;;;;;;2617355;54;20019;-65
2022/10/14 00:25:16;;;;;;;;;;;;;;;;;;2617867;39;20421;-64
2022/10/14 00:27:46;;;;;;;;;;;;;;;;;;2616984;54;20866;-64
2022/10/14 00:30:15;;;;;;;;;;;;;;;;;;2616625;54;20030;-65
2022/10/14 00:32:44;;;;;;;;;;;;;;;;;;2616996;54;20053;-64
2022/10/14 00:35:14;;;;;;;;;;;;;;;;;;2617134;54;20018;-64
2022/10/14 00:37:43;;;;;;;;;;;;;;;;;;2617342;54;20068;-64
2022/10/14 00:40:12;;;;;;;;;;;;;;;;;;2616943;54;20049;-64
2022/10/14 00:42:42;;;;;;;;;;;;;;;;;;2617511;47;20048;-64
2022/10/14 00:45:11;;;;;;;;;;;;;;;;;;2616845;54;20077;-65
2022/10/14 00:47:40;;;;;;;;;;;;;;;;;;2616765;54;20121;-65
2022/10/14 00:50:10;;;;;;;;;;;;;;;;;;2617159;54;20106;-64
2022/10/14 00:52:39;;;;;;;;;;;;;;;;;;2616851;54;20026;-63
2022/10/14 00:55:08;;;;;;;;;;;;;;;;;;2616844;54;20113;-63
2022/10/14 00:57:38;;;;;;;;;;;;;;;;;;2616889;54;20022;-64
2022/10/14 01:00:07;;;;;;;;;;;;;;;;;;2616475;54;20038;-64
2022/10/14 01:02:36;;;;;;;;;;;;;;;;;;2617123;39;20429;-64
2022/10/14 01:05:06;;;;;;;;;;;;;;;;;;2617491;31;20487;-64
2022/10/14 01:07:35;;;;;;;;;;;;;;;;;;2617234;54;20045;-64
2022/10/14 01:10:04;;;;;;;;;;;;;;;;;;2616618;54;20034;-64
2022/10/14 01:12:34;;;;;;;;;;;;;;;;;;2616925;39;20368;-64
2022/10/14 01:15:03;;;;;;;;;;;;;;;;;;2617275;54;20098;-64
2022/10/14 01:17:33;;;;;;;;;;;;;;;;;;2617545;54;20034;-64
2022/10/14 01:20:02;;;;;;;;;;;;;;;;;;2618880;54;20018;-64
2022/10/14 01:22:31;;;;;;;;;;;;;;;;;;2617750;54;20026;-64
2022/10/14 01:25:01;;;;;;;;;;;;;;;;;;2617306;54;20046;-64
2022/10/14 01:27:30;;;;;;;;;;;;;;;;;;2617520;54;20045;-64
2022/10/14 01:29:59;;;;;;;;;;;;;;;;;;2617042;54;20462;-64
2022/10/14 01:32:29;;;;;;;;;;;;;;;;;;2617444;54;20043;-64
2022/10/14 01:34:58;;;;;;;;;;;;;;;;;;2617164;54;20026;-64
2022/10/14 01:37:27;;;;;;;;;;;;;;;;;;2617276;54;20038;-64
2022/10/14 01:39:57;;;;;;;;;;;;;;;;;;2617432;54;20042;-64
2022/10/14 01:42:26;;;;;;;;;;;;;;;;;;2617683;54;20129;-64
2022/10/14 01:44:55;;;;;;;;;;;;;;;;;;2617727;39;20398;-64
2022/10/14 01:47:25;;;;;;;;;;;;;;;;;;2617444;54;20578;-63
2022/10/14 01:49:54;;;;;;;;;;;;;;;;;;2617328;54;20073;-64
2022/10/14 01:52:26;;;;;;;;;;;;;;;;;;2617490;54;20093;-64
2022/10/14 01:54:55;;;;;;;;;;;;;;;;;;2617690;52;20026;-64
2022/10/14 01:57:24;;;;;;;;;;;;;;;;;;2618390;54;20027;-64
2022/10/14 01:59:54;;;;;;;;;;;;;;;;;;2618041;31;20483;-63
2022/10/14 02:02:23;;;;;;;;;;;;;;;;;;2617835;39;20458;-64
2022/10/14 02:04:52;;;;;;;;;;;;;;;;;;2617321;54;20073;-63
2022/10/14 02:07:22;;;;;;;;;;;;;;;;;;2617237;54;20051;-64
2022/10/14 02:09:51;;;;;;;;;;;;;;;;;;2617003;54;20022;-65
2022/10/14 02:12:20;;;;;;;;;;;;;;;;;;2617193;54;20066;-64
2022/10/14 02:14:50;;;;;;;;;;;;;;;;;;2617139;54;20074;-64
2022/10/14 02:17:19;;;;;;;;;;;;;;;;;;2617308;54;20014;-64
2022/10/14 02:19:49;;;;;;;;;;;;;;;;;;2617814;54;20066;-64
2022/10/14 02:22:18;;;;;;;;;;;;;;;;;;2617380;54;20026;-64
2022/10/14 02:24:48;;;;;;;;;;;;;;;;;;2617338;54;20022;-64
2022/10/14 02:27:17;;;;;;;;;;;;;;;;;;2617432;54;20109;-65
2022/10/14 02:29:47;;;;;;;;;;;;;;;;;;2617079;54;20022;-64
2022/10/14 02:32:16;;;;;;;;;;;;;;;;;;2617217;54;20549;-64
2022/10/14 02:34:45;;;;;;;;;;;;;;;;;;2617709;31;20455;-64
2022/10/14 02:37:15;;;;;;;;;;;;;;;;;;2617008;54;20019;-65
2022/10/14 02:39:44;;;;;;;;;;;;;;;;;;2617041;54;20584;-64
2022/10/14 02:42:13;;;;;;;;;;;;;;;;;;2617264;54;20142;-65
2022/10/14 02:44:42;;;;;;;;;;;;;;;;;;2617317;54;20018;-64
2022/10/14 02:47:12;;;;;;;;;;;;;;;;;;2617738;54;20014;-64
2022/10/14 02:49:41;;;;;;;;;;;;;;;;;;2619203;54;20065;-64
2022/10/14 02:52:10;;;;;;;;;;;;;;;;;;2617801;54;20072;-64
2022/10/14 02:54:40;;;;;;;;;;;;;;;;;;2617349;54;20105;-64
2022/10/14 02:57:09;;;;;;;;;;;;;;;;;;2617593;54;20030;-64
2022/10/14 02:59:38;;;;;;;;;;;;;;;;;;2617299;54;20067;-64
2022/10/14 03:02:08;;;;;;;;;;;;;;;;;;2617131;54;20530;-65
2022/10/14 03:04:38;;;;;;;;;;;;;;;;;;2616640;54;20026;-65
2022/10/14 03:07:07;;;;;;;;;;;;;;;;;;2617176;54;20034;-64
2022/10/14 03:09:36;;;;;;;;;;;;;;;;;;2617231;54;20045;-64
2022/10/14 03:12:06;;;;;;;;;;;;;;;;;;2617463;39;20439;-64
2022/10/14 03:14:35;;;;;;;;;;;;;;;;;;2616919;54;20106;-65
2022/10/14 03:17:04;;;;;;;;;;;;;;;;;;2617009;54;20056;-64
2022/10/14 03:19:34;;;;;;;;;;;;;;;;;;2616978;54;20061;-65
2022/10/14 03:22:03;;;;;;;;;;;;;;;;;;2617163;54;20069;-65
2022/10/14 03:24:33;;;;;;;;;;;;;;;;;;2616746;54;20022;-64
2022/10/14 03:27:02;;;;;;;;;;;;;;;;;;2617292;54;20049;-65
2022/10/14 03:29:31;;;;;;;;;;;;;;;;;;2617863;54;20028;-64
2022/10/14 03:32:01;;;;;;;;;;;;;;;;;;2617252;54;20037;-65
2022/10/14 03:34:30;;;;;;;;;;;;;;;;;;2616971;54;20065;-65
2022/10/14 03:36:59;;;;;;;;;;;;;;;;;;2616268;54;20030;-64
2022/10/14 03:39:29;;;;;;;;;;;;;;;;;;2617180;54;20048;-64
2022/10/14 03:41:58;;;;;;;;;;;;;;;;;;2617366;54;20027;-65
2022/10/14 03:44:28;;;;;;;;;;;;;;;;;;2617087;54;20018;-64
2022/10/14 03:46:57;;;;;;;;;;;;;;;;;;2617188;54;20045;-64
2022/10/14 03:49:26;;;;;;;;;;;;;;;;;;2617154;54;20026;-64
2022/10/14 03:51:56;;;;;;;;;;;;;;;;;;2616794;54;20049;-65
2022/10/14 03:54:25;;;;;;;;;;;;;;;;;;2616696;54;20026;-65
2022/10/14 03:56:54;;;;;;;;;;;;;;;;;;2616781;54;20105;-65
2022/10/14 03:59:24;;;;;;;;;;;;;;;;;;2617195;54;20145;-65
2022/10/14 04:01:53;;;;;;;;;;;;;;;;;;2617203;54;20092;-65
2022/10/14 04:04:22;;;;;;;;;;;;;;;;;;2616586;54;20019;-64
2022/10/14 04:06:52;;;;;;;;;;;;;;;;;;2616813;54;20057;-65
2022/10/14 04:09:22;;;;;;;;;;;;;;;;;;2616837;54;20510;-64
2022/10/14 04:11:52;;;;;;;;;;;;;;;;;;2616803;54;20026;-64
2022/10/14 04:14:21;;;;;;;;;;;;;;;;;;2616983;54;20018;-63
2022/10/14 04:16:50;;;;;;;;;;;;;;;;;;2617022;54;20145;-65
2022/10/14 04:19:20;;;;;;;;;;;;;;;;;;2616864;54;20049;-65
2022/10/14 04:21:49;;;;;;;;;;;;;;;;;;2618437;39;20461;-64
2022/10/14 04:24:18;;;;;;;;;;;;;;;;;;2618332;54;20082;-64
2022/10/14 04:26:48;;;;;;;;;;;;;;;;;;2618164;31;20534;-65
2022/10/14 04:29:17;;;;;;;;;;;;;;;;;;2617084;54;20539;-65
2022/10/14 04:31:46;;;;;;;;;;;;;;;;;;2617419;54;20022;-65
2022/10/14 04:34:16;;;;;;;;;;;;;;;;;;2617275;54;20103;-64
2022/10/14 04:36:45;;;;;;;;;;;;;;;;;;2616083;54;20101;-64
2022/10/14 04:39:15;;;;;;;;;;;;;;;;;;2615677;54;20023;-65
2022/10/14 04:41:44;;;;;;;;;;;;;;;;;;2615618;54;20061;-64
2022/10/14 04:44:13;;;;;;;;;;;;;;;;;;2615400;39;20449;-64
2022/10/14 04:46:43;;;;;;;;;;;;;;;;;;2615256;54;20473;-64
2022/10/14 04:49:13;;;;;;;;;;;;;;;;;;2614877;54;20038;-64
2022/10/14 04:51:42;;;;;;;;;;;;;;;;;;2615300;54;20026;-64
2022/10/14 04:54:12;;;;;;;;;;;;;;;;;;2615796;54;20069;-65
2022/10/14 04:56:41;;;;;;;;;;;;;;;;;;2616448;47;20519;-64
2022/10/14 04:59:11;;;;;;;;;;;;;;;;;;2616791;54;20092;-64
2022/10/14 05:01:40;;;;;;;;;;;;;;;;;;2616861;54;20046;-65
2022/10/14 05:04:09;;;;;;;;;;;;;;;;;;2616841;54;20022;-65
2022/10/14 05:06:39;;;;;;;;;;;;;;;;;;2617245;54;20042;-66
2022/10/14 05:09:08;;;;;;;;;;;;;;;;;;2616827;54;20050;-66
2022/10/14 05:11:38;;;;;;;;;;;;;;;;;;2617097;54;20069;-65
2022/10/14 05:14:07;;;;;;;;;;;;;;;;;;2616667;46;20065;-65
2022/10/14 05:16:36;;;;;;;;;;;;;;;;;;2616615;54;20077;-66
2022/10/14 05:19:06;;;;;;;;;;;;;;;;;;2616755;54;20042;-65
2022/10/14 05:21:35;;;;;;;;;;;;;;;;;;2617306;54;20057;-65
2022/10/14 05:24:04;;;;;;;;;;;;;;;;;;2616848;54;20025;-64
2022/10/14 05:26:34;;;;;;;;;;;;;;;;;;2617275;39;20422;-65
2022/10/14 05:29:03;;;;;;;;;;;;;;;;;;2616466;47;20061;-65
2022/10/14 05:31:33;;;;;;;;;;;;;;;;;;2616886;54;20018;-66
2022/10/14 05:34:02;;;;;;;;;;;;;;;;;;2618597;39;20433;-67
2022/10/14 05:36:31;;;;;;;;;;;;;;;;;;2616481;54;20073;-65
2022/10/14 05:39:01;;;;;;;;;;;;;;;;;;2616949;54;20529;-65
2022/10/14 05:41:30;;;;;;;;;;;;;;;;;;2616851;54;20026;-65
2022/10/14 05:43:59;;;;;;;;;;;;;;;;;;2617687;39;20446;-65
2022/10/14 05:46:29;;;;;;;;;;;;;;;;;;2616658;54;20023;-65
2022/10/14 05:48:59;;;;;;;;;;;;;;;;;;2616833;54;20072;-67
2022/10/14 05:51:28;;;;;;;;;;;;;;;;;;2616650;54;20053;-66
2022/10/14 05:53:58;;;;;;;;;;;;;;;;;;2618056;54;20072;-66
2022/10/14 05:56:27;;;;;;;;;;;;;;;;;;2617548;47;20019;-66
2022/10/14 05:58:57;;;;;;;;;;;;;;;;;;2617054;54;20077;-66
2022/10/14 06:01:26;;;;;;;;;;;;;;;;;;2616894;54;20042;-65
2022/10/14 06:03:56;;;;;;;;;;;;;;;;;;2617484;54;20018;-66
2022/10/14 06:06:26;;;;;;;;;;;;;;;;;;2617087;54;20058;-66
2022/10/14 06:08:57;;;;;;;;;;;;;;;;;;2617338;54;20024;-67
2022/10/14 06:11:27;;;;;;;;;;;;;;;;;;2617712;46;20129;-66
2022/10/14 06:13:56;;;;;;;;;;;;;;;;;;2617623;39;20120;-66
2022/10/14 06:16:26;;;;;;;;;;;;;;;;;;2617105;54;20054;-67
2022/10/14 06:18:56;;;;;;;;;;;;;;;;;;2617437;54;20026;-64
2022/10/14 06:21:26;;;;;;;;;;;;;;;;;;2617414;54;20018;-66
2022/10/14 06:23:56;;;;;;;;;;;;;;;;;;2617691;54;20026;-66
2022/10/14 06:26:25;;;;;;;;;;;;;;;;;;2617281;54;20022;-65
2022/10/14 06:28:55;;;;;;;;;;;;;;;;;;2617219;54;20811;-65
2022/10/14 06:31:25;;;;;;;;;;;;;;;;;;2617223;54;20046;-65
2022/10/14 06:34:00;;;;;;;;;;;;;;;;;;2617193;54;20022;-67
2022/10/14 06:36:30;;;;;;;;;;;;;;;;;;2616968;54;20164;-65
2022/10/14 06:39:00;;;;;;;;;;;;;;;;;;2617803;54;20019;-65
2022/10/14 06:41:31;;;;;;;;;;;;;;;;;;2617666;54;20049;-65
2022/10/14 06:44:00;;;;;;;;;;;;;;;;;;2617457;47;20018;-66
2022/10/14 06:46:30;;;;;;;;;;;;;;;;;;2617434;54;20385;-65
2022/10/14 06:49:00;;;;;;;;;;;;;;;;;;2617344;54;20018;-66
2022/10/14 06:51:30;;;;;;;;;;;;;;;;;;2617090;54;20079;-66
2022/10/14 06:53:59;;;;;;;;;;;;;;;;;;2617993;46;20022;-65
2022/10/14 06:56:29;;;;;;;;;;;;;;;;;;2617404;39;20502;-65
2022/10/14 06:58:59;;;;;;;;;;;;;;;;;;2617250;54;20042;-64
2022/10/14 07:01:29;;;;;;;;;;;;;;;;;;2616731;54;20061;-65
2022/10/14 07:03:58;;;;;;;;;;;;;;;;;;2617153;54;20019;-65
2022/10/14 07:06:29;;;;;;;;;;;;;;;;;;2617695;54;20018;-65
2022/10/14 07:08:58;;;;;;;;;;;;;;;;;;2617446;46;20523;-64
2022/10/14 07:11:28;;;;;;;;;;;;;;;;;;2617348;54;20038;-64
2022/10/14 07:13:58;;;;;;;;;;;;;;;;;;2617143;47;20085;-64
2022/10/14 07:16:28;;;;;;;;;;;;;;;;;;2616992;54;20033;-64
2022/10/14 07:18:58;;;;;;;;;;;;;;;;;;2618083;31;20641;-64
2022/10/14 07:21:28;;;;;;;;;;;;;;;;;;2616950;54;20033;-65
2022/10/14 07:23:58;;;;;;;;;;;;;;;;;;2617754;39;20438;-65
2022/10/14 07:26:28;;;;;;;;;;;;;;;;;;2618423;54;20506;-65
2022/10/14 07:28:58;;;;;;;;;;;;;;;;;;2619119;54;20150;-65
2022/10/14 07:31:28;;;;;;;;;;;;;;;;;;2617508;39;20466;-64
2022/10/14 07:33:58;;;;;;;;;;;;;;;;;;2617347;54;20029;-64
2022/10/14 07:36:31;;;;;;;;;;;;;;;;;;2617468;46;20054;-65
2022/10/14 07:39:01;;;;;;;;;;;;;;;;;;2617259;54;20026;-65
2022/10/14 07:41:31;;;;;;;;;;;;;;;;;;2617261;54;20018;-65
2022/10/14 07:44:04;;;;;;;;;;;;;;;;;;2617429;54;20026;-73
2022/10/14 07:46:34;;;;;;;;;;;;;;;;;;2617162;54;20046;-65
2022/10/14 07:49:04;;;;;;;;;;;;;;;;;;2617269;54;20045;-65
2022/10/14 07:51:34;;;;;;;;;;;;;;;;;;2617121;54;20026;-65
2022/10/14 07:54:04;;;;;;;;;;;;;;;;;;2617036;54;20019;-65
2022/10/14 07:56:34;;;;;;;;;;;;;;;;;;2617282;54;20025;-66
2022/10/14 07:59:04;;;;;;;;;;;;;;;;;;2617633;39;20426;-65
2022/10/14 08:01:34;;;;;;;;;;;;;;;;;;2616812;54;20046;-64
2022/10/14 08:04:04;;;;;;;;;;;;;;;;;;2617019;54;20018;-65
2022/10/14 08:06:34;;;;;;;;;;;;;;;;;;2617381;39;20695;-66
2022/10/14 08:09:04;;;;;;;;;;;;;;;;;;2617294;54;20011;-66
2022/10/14 08:11:34;;;;;;;;;;;;;;;;;;2616791;54;20022;-66
2022/10/14 08:14:04;;;;;;;;;;;;;;;;;;2618876;54;20026;-66
2022/10/14 08:16:34;;;;;;;;;;;;;;;;;;2617976;54;20046;-65
2022/10/14 08:19:04;;;;;;;;;;;;;;;;;;2617106;54;20037;-65
2022/10/14 08:21:38;;;;;;;;;;;;;;;;;;2617261;54;20114;-66
2022/10/14 08:24:08;;;;;;;;;;;;;;;;;;2616815;54;20542;-66
2022/10/14 08:26:41;;;;;;;;;;;;;;;;;;2617231;54;20018;-65
2022/10/14 08:29:11;;;;;;;;;;;;;;;;;;2617480;54;20073;-64
2022/10/14 08:31:41;;;;;;;;;;;;;;;;;;2616952;54;20058;-67
2022/10/14 08:34:11;;;;;;;;;;;;;;;;;;2616733;54;20066;-65
2022/10/14 08:36:41;;;;;;;;;;;;;;;;;;2617322;54;20022;-66
2022/10/14 08:39:11;;;;;;;;;;;;;;;;;;2617138;54;20019;-65
2022/10/14 08:41:41;;;;;;;;;;;;;;;;;;2617111;54;20019;-65
2022/10/14 08:44:11;;;;;;;;;;;;;;;;;;2616830;54;20030;-66
2022/10/14 08:46:41;;;;;;;;;;;;;;;;;;2616849;54;20038;-65
2022/10/14 08:49:13;;;;;;;;;;;;;;;;;;2616775;54;20543;-65
2022/10/14 08:51:43;;;;;;;;;;;;;;;;;;2617028;54;20104;-65
2022/10/14 08:54:14;;;;;;;;;;;;;;;;;;2617144;54;20092;-65
2022/10/14 08:56:44;;;;;;;;;;;;;;;;;;2616828;54;20046;-66
2022/10/14 08:59:14;;;;;;;;;;;;;;;;;;2616729;54;20527;-65
2022/10/14 09:01:44;;;;;;;;;;;;;;;;;;2616750;54;20073;-64
2022/10/14 09:04:15;;;;;;;;;;;;;;;;;;2617967;54;20110;-65
2022/10/14 09:06:45;;;;;;;;;;;;;;;;;;2618939;54;20022;-65
2022/10/14 09:09:15;;;;;;;;;;;;;;;;;;2617193;47;20026;-65
2022/10/14 09:11:45;;;;;;;;;;;;;;;;;;2616916;54;20561;-65
2022/10/14 09:14:15;;;;;;;;;;;;;;;;;;2616892;54;20553;-65
2022/10/14 09:16:47;;;;;;;;;;;;;;;;;;2616882;54;20053;-66
2022/10/14 09:19:20;;;;;;;;;;;;;;;;;;2616951;54;20049;-66
2022/10/14 09:21:50;;;;;;;;;;;;;;;;;;2617090;54;20058;-66
2022/10/14 09:24:22;;;;;;;;;;;;;;;;;;2617517;39;20530;-66
2022/10/14 09:26:53;;;;;;;;;;;;;;;;;;2616911;54;20027;-66
2022/10/14 09:29:23;;;;;;;;;;;;;;;;;;2616986;54;20062;-66
2022/10/14 09:31:53;;;;;;;;;;;;;;;;;;2616742;54;20534;-65
2022/10/14 09:34:23;;;;;;;;;;;;;;;;;;2617382;39;20422;-65
2022/10/14 09:36:53;;;;;;;;;;;;;;;;;;2617421;54;20030;-66
2022/10/14 09:39:23;;;;;;;;;;;;;;;;;;2617500;54;20018;-65
2022/10/14 09:41:53;;;;;;;;;;;;;;;;;;2617330;54;20069;-65
2022/10/14 09:44:26;;;;;;;;;;;;;;;;;;2617605;46;20026;-66
2022/10/14 09:46:56;;;;;;;;;;;;;;;;;;2617545;54;20019;-65
2022/10/14 09:49:26;;;;;;;;;;;;;;;;;;2619572;47;20085;-65
2022/10/14 09:51:56;;;;;;;;;;;;;;;;;;2618612;54;20049;-65
2022/10/14 09:54:26;;;;;;;;;;;;;;;;;;2617758;54;20072;-65
2022/10/14 09:56:58;;;;;;;;;;;;;;;;;;2617777;54;20026;-66
2022/10/14 09:59:28;;;;;;;;;;;;;;;;;;2617525;54;20034;-65
2022/10/14 10:01:59;;;;;;;;;;;;;;;;;;2617781;54;20049;-66
2022/10/14 10:04:29;;;;;;;;;;;;;;;;;;2617810;54;20049;-65
2022/10/14 10:06:59;;;;;;;;;;;;;;;;;;2617925;54;20022;-65
2022/10/14 10:09:32;;;;;;;;;;;;;;;;;;2617643;54;20133;-66
2022/10/14 10:12:02;;;;;;;;;;;;;;;;;;2617513;54;20065;-65
2022/10/14 10:14:32;;;;;;;;;;;;;;;;;;2617613;54;20537;-65
2022/10/14 10:17:11;;;;;;;;;;;;;;;;;;2617633;54;20022;-66
2022/10/14 10:19:41;;;;;;;;;;;;;;;;;;2618015;54;20018;-67
2022/10/14 10:22:11;;;;;;;;;;;;;;;;;;2617608;54;20049;-65
2022/10/14 10:24:42;;;;;;;;;;;;;;;;;;2617514;54;20018;-66
2022/10/14 10:27:11;;;;;;;;;;;;;;;;;;2617565;54;20026;-66
2022/10/14 10:29:40;;;;;;;;;;;;;;;;;;2617640;39;20422;-65
2022/10/14 10:32:10;;;;;;;;;;;;;;;;;;2617194;54;20018;-65
2022/10/14 10:34:40;;;;;;;;;;;;;;;;;;2617367;54;20030;-66
2022/10/14 10:37:10;;;;;;;;;;;;;;;;;;2617924;39;20400;-66
2022/10/14 10:39:39;;;;;;;;;;;;;;;;;;2617777;39;20553;-65
2022/10/14 10:42:09;;;;;;;;;;;;;;;;;;2619691;54;20023;-66
2022/10/14 10:44:39;;;;;;;;;;;;;;;;;;2618353;54;20069;-67
2022/10/14 10:47:08;;;;;;;;;;;;;;;;;;2617815;39;20451;-65
2022/10/14 10:49:37;;;;;;;;;;;;;;;;;;2617713;54;20018;-65
2022/10/14 10:52:07;;;;;;;;;;;;;;;;;;2617376;54;20023;-65
2022/10/14 10:54:36;;;;;;;;;;;;;;;;;;2617360;54;20029;-66
2022/10/14 10:57:06;;;;;;;;;;;;;;;;;;2617634;39;20435;-65
2022/10/14 10:59:35;;;;;;;;;;;;;;;;;;2616943;54;20038;-65
2022/10/14 11:02:04;;;;;;;;;;;;;;;;;;2617371;39;20383;-65
2022/10/14 11:04:34;;;;;;;;;;;;;;;;;;2616959;54;20079;-65
2022/10/14 11:12:35;;;;;;;;;;;;;;;;;;2614829;54;20010;-66
2022/10/14 11:15:05;;;;;;;;;;;;;;;;;;2616184;39;20470;-66
2022/10/14 11:17:34;;;;;;;;;;;;;;;;;;2616764;54;20031;-66
2022/10/14 11:20:04;;;;;;;;;;;;;;;;;;2616517;54;20034;-66
2022/10/14 11:22:33;;;;;;;;;;;;;;;;;;2616711;54;20526;-65
2022/10/14 11:25:02;;;;;;;;;;;;;;;;;;2616924;54;20034;-66
2022/10/14 11:27:32;;;;;;;;;;;;;;;;;;2619502;54;20057;-65
2022/10/14 11:30:01;;;;;;;;;;;;;;;;;;2616694;54;20037;-65
2022/10/14 11:32:30;;;;;;;;;;;;;;;;;;2616336;54;20045;-66
2022/10/14 11:35:00;;;;;;;;;;;;;;;;;;2616472;54;20037;-65
2022/10/14 11:37:29;;;;;;;;;;;;;;;;;;2616754;54;20069;-65
2022/10/14 11:39:59;;;;;;;;;;;;;;;;;;2617263;47;20034;-64
2022/10/14 11:42:28;;;;;;;;;;;;;;;;;;2616384;54;20113;-65
2022/10/14 11:44:57;;;;;;;;;;;;;;;;;;2616348;54;20121;-64
2022/10/14 11:47:27;;;;;;;;;;;;;;;;;;2616735;39;20535;-65
2022/10/14 11:49:56;;;;;;;;;;;;;;;;;;2617280;31;20534;-66
2022/10/14 11:52:25;;;;;;;;;;;;;;;;;;2616474;54;20138;-66
2022/10/14 11:54:54;;;;;;;;;;;;;;;;;;2615827;54;20551;-66
2022/10/14 11:57:24;;;;;;;;;;;;;;;;;;2616221;54;20074;-66
2022/10/14 11:59:53;;;;;;;;;;;;;;;;;;2615452;54;20046;-65
2022/10/14 12:02:24;;;;;;;;;;;;;;;;;;2615719;54;20134;-66
2022/10/14 12:04:54;;;;;;;;;;;;;;;;;;2615646;54;20065;-66
2022/10/14 12:07:23;;;;;;;;;;;;;;;;;;2615997;54;20134;-65
2022/10/14 12:09:52;;;;;;;;;;;;;;;;;;2615906;54;20905;-66
2022/10/14 12:12:25;;;;;;;;;;;;;;;;;;2616206;54;20042;-65
2022/10/14 12:14:54;;;;;;;;;;;;;;;;;;2615860;54;20057;-66
2022/10/14 12:17:23;;;;;;;;;;;;;;;;;;2615637;54;20089;-66
2022/10/14 12:19:53;;;;;;;;;;;;;;;;;;2615989;54;20455;-66
2022/10/14 12:22:22;;;;;;;;;;;;;;;;;;2616405;54;20065;-65
2022/10/14 12:24:52;;;;;;;;;;;;;;;;;;2618542;54;20114;-65
2022/10/14 12:27:22;;;;;;;;;;;;;;;;;;2616403;54;20046;-65
2022/10/14 12:29:51;;;;;;;;;;;;;;;;;;2616160;47;20056;-65
2022/10/14 12:32:21;;;;;;;;;;;;;;;;;;2615605;54;20056;-66
2022/10/14 12:34:52;;;;;;;;;;;;;;;;;;2615684;54;20129;-66
2022/10/14 12:37:21;;;;;;;;;;;;;;;;;;2615655;54;20072;-66
2022/10/14 12:39:55;;;;;;;;;;;;;;;;;;2616178;39;20434;-65
2022/10/14 12:42:25;;;;;;;;;;;;;;;;;;2615712;54;20038;-64
2022/10/14 12:44:55;;;;;;;;;;;;;;;;;;2616059;54;20089;-65
2022/10/14 12:47:27;;;;;;;;;;;;;;;;;;2615608;54;20037;-65
2022/10/14 12:49:57;;;;;;;;;;;;;;;;;;2616031;54;20621;-65
2022/10/14 12:52:26;;;;;;;;;;;;;;;;;;2615696;54;20092;-65
2022/10/14 12:54:56;;;;;;;;;;;;;;;;;;2616152;54;20110;-64
2022/10/14 12:57:25;;;;;;;;;;;;;;;;;;2615948;54;20446;-66
2022/10/14 12:59:54;;;;;;;;;;;;;;;;;;2616254;54;20080;-65
2022/10/14 13:02:24;;;;;;;;;;;;;;;;;;2616457;54;20050;-65
2022/10/14 13:04:53;;;;;;;;;;;;;;;;;;2616789;54;20392;-65
2022/10/14 13:07:22;;;;;;;;;;;;;;;;;;2617825;54;20038;-67
2022/10/14 13:10:07;;;;;;;;;;;;;;;;;;2616378;54;20042;-64
2022/10/14 13:12:37;;;;;;;;;;;;;;;;;;2615823;54;20076;-65
2022/10/14 13:15:06;;;;;;;;;;;;;;;;;;2616666;54;20236;-65
2022/10/14 13:17:36;;;;;;;;;;;;;;;;;;2615676;54;20065;-65
2022/10/14 13:20:06;;;;;;;;;;;;;;;;;;2616118;54;20038;-66
2022/10/14 13:22:35;;;;;;;;;;;;;;;;;;2616329;54;20037;-66
2022/10/14 13:25:06;;;;;;;;;;;;;;;;;;2616079;54;20058;-66
2022/10/14 13:27:36;;;;;;;;;;;;;;;;;;2616173;54;20090;-65
2022/10/14 13:30:05;;;;;;;;;;;;;;;;;;2615754;54;20846;-66
2022/10/14 13:32:34;;;;;;;;;;;;;;;;;;2615692;54;20031;-64
2022/10/14 13:35:04;;;;;;;;;;;;;;;;;;2616543;54;20030;-65
2022/10/14 13:37:34;;;;;;;;;;;;;;;;;;2616595;54;20030;-66
2022/10/14 13:40:03;;;;;;;;;;;;;;;;;;2616383;54;20026;-66
2022/10/14 13:42:33;;;;;;;;;;;;;;;;;;2617079;39;20438;-65
2022/10/14 13:45:02;;;;;;;;;;;;;;;;;;2616672;54;20022;-64
2022/10/14 13:47:31;;;;;;;;;;;;;;;;;;2616972;54;20026;-66
2022/10/14 13:50:01;;;;;;;;;;;;;;;;;;2616675;54;20053;-66
2022/10/14 13:52:30;;;;;;;;;;;;;;;;;;2615628;54;20073;-65
2022/10/14 13:54:59;;;;;;;;;;;;;;;;;;2616030;39;20517;-64
2022/10/14 13:57:29;;;;;;;;;;;;;;;;;;2615670;54;20652;-65
2022/10/14 14:00:18;;;;;;;;;;;;;;;;;;2617270;39;20427;-65
2022/10/14 14:03:07;;;;;;;;;;;;;;;;;;2616407;54;20056;-64
2022/10/14 14:05:37;;;;;;;;;;;;;;;;;;2616353;54;20022;-65
2022/10/14 14:08:06;;;;;;;;;;;;;;;;;;2616447;46;20094;-65
2022/10/14 14:10:55;;;;;;;;;;;;;;;;;;2616275;47;20106;-65
2022/10/14 14:13:43;;;;;;;;;;;;;;;;;;2616558;54;20019;-65
2022/10/14 14:16:17;;;;;;;;;;;;;;;;;;2616344;54;20048;-65
2022/10/14 14:18:47;;;;;;;;;;;;;;;;;;2616803;46;20042;-65
2022/10/14 14:21:32;;;;;;;;;;;;;;;;;;2617033;39;20464;-65
2022/10/14 14:24:01;;;;;;;;;;;;;;;;;;2616358;54;20030;-65
2022/10/14 14:26:30;;;;;;;;;;;;;;;;;;2616209;54;20030;-65
2022/10/14 14:29:00;;;;;;;;;;;;;;;;;;2616824;54;20565;-65
2022/10/14 14:31:29;;;;;;;;;;;;;;;;;;2617166;54;20038;-64
2022/10/14 14:34:19;;;;;;;;;;;;;;;;;;2616877;54;20023;-65
2022/10/14 14:36:48;;;;;;;;;;;;;;;;;;2616572;54;20082;-65
2022/10/14 14:39:23;;;;;;;;;;;;;;;;;;2617340;54;20060;-65
2022/10/14 14:41:53;;;;;;;;;;;;;;;;;;2619522;54;20084;-65
2022/10/14 14:44:22;;;;;;;;;;;;;;;;;;2617723;54;20507;-64
2022/10/14 14:46:54;;;;;;;;;;;;;;;;;;2617498;54;20029;-64
2022/10/14 14:49:23;;;;;;;;;;;;;;;;;;2618054;54;20142;-64
2022/10/14 14:51:53;;;;;;;;;;;;;;;;;;2617292;54;20037;-64
2022/10/14 14:54:22;;;;;;;;;;;;;;;;;;2617195;47;20505;-65
2022/10/14 14:56:51;;;;;;;;;;;;;;;;;;2617407;54;20046;-65
2022/10/14 14:59:21;;;;;;;;;;;;;;;;;;2617225;54;20414;-65
2022/10/14 15:01:50;;;;;;;;;;;;;;;;;;2617112;54;20045;-66
2022/10/14 15:04:19;;;;;;;;;;;;;;;;;;2617300;46;20034;-65
2022/10/14 15:06:49;;;;;;;;;;;;;;;;;;2617105;54;20122;-65
2022/10/14 15:09:19;;;;;;;;;;;;;;;;;;2617220;54;20018;-65
2022/10/14 15:11:48;;;;;;;;;;;;;;;;;;2616569;54;20038;-65
2022/10/14 15:14:18;;;;;;;;;;;;;;;;;;2617157;54;20124;-65
2022/10/14 15:16:50;;;;;;;;;;;;;;;;;;2617176;54;20053;-65
2022/10/14 15:19:19;;;;;;;;;;;;;;;;;;2617597;31;20538;-65
2022/10/14 15:21:48;;;;;;;;;;;;;;;;;;2617018;39;20461;-65
2022/10/14 15:24:18;;;;;;;;;;;;;;;;;;2617829;31;20474;-65
2022/10/14 15:26:47;;;;;;;;;;;;;;;;;;2617125;54;20018;-65
2022/10/14 15:29:17;;;;;;;;;;;;;;;;;;2616824;54;20030;-65
2022/10/14 15:31:46;;;;;;;;;;;;;;;;;;2616904;54;20053;-64
2022/10/14 15:34:16;;;;;;;;;;;;;;;;;;2616808;54;20145;-65
2022/10/14 15:36:45;;;;;;;;;;;;;;;;;;2617019;54;20072;-65
2022/10/14 15:39:14;;;;;;;;;;;;;;;;;;2616966;54;20023;-65
2022/10/14 15:41:44;;;;;;;;;;;;;;;;;;2616168;54;20109;-64
2022/10/14 15:44:13;;;;;;;;;;;;;;;;;;2617016;54;20519;-65
2022/10/14 15:49:24;;;;;;;;;;;;;;;;;;2616768;47;20566;-65
2022/10/14 15:51:53;;;;;;;;;;;;;;;;;;2616471;54;20018;-65
2022/10/14 15:54:26;;;;;;;;;;;;;;;;;;2616480;54;20042;-64
2022/10/14 15:56:55;;;;;;;;;;;;;;;;;;2616724;54;20042;-64
2022/10/14 15:59:44;;;;;;;;;;;;;;;;;;2615396;54;20072;-65
2022/10/14 16:02:14;;;;;;;;;;;;;;;;;;2616062;54;20050;-65
2022/10/14 16:04:43;;;;;;;;;;;;;;;;;;2616541;54;20590;-64
2022/10/14 16:07:28;;;;;;;;;;;;;;;;;;2617360;39;20124;-65
2022/10/14 16:09:58;;;;;;;;;;;;;;;;;;2616566;54;20022;-65
2022/10/14 16:12:27;;;;;;;;;;;;;;;;;;2616465;54;20050;-65
2022/10/14 16:14:57;;;;;;;;;;;;;;;;;;2616635;54;20046;-65
2022/10/14 16:17:27;;;;;;;;;;;;;;;;;;2616599;54;20034;-64
2022/10/14 16:19:56;;;;;;;;;;;;;;;;;;2616372;39;20304;-66
2022/10/14 16:22:25;;;;;;;;;;;;;;;;;;2616082;54;20136;-64
2022/10/14 16:24:55;;;;;;;;;;;;;;;;;;2616184;39;20089;-64
2022/10/14 16:27:24;;;;;;;;;;;;;;;;;;2616954;54;20026;-64
2022/10/14 16:29:54;;;;;;;;;;;;;;;;;;2616383;39;20453;-64
2022/10/14 16:32:23;;;;;;;;;;;;;;;;;;2616291;54;20121;-65
2022/10/14 16:34:53;;;;;;;;;;;;;;;;;;2616487;54;20045;-64
2022/10/14 16:37:22;;;;;;;;;;;;;;;;;;2617086;31;20550;-64
2022/10/14 16:39:52;;;;;;;;;;;;;;;;;;2616342;54;20580;-64
2022/10/14 16:42:21;;;;;;;;;;;;;;;;;;2616484;54;20542;-64
2022/10/14 16:44:50;;;;;;;;;;;;;;;;;;2615906;54;20038;-64
2022/10/14 16:47:21;;;;;;;;;;;;;;;;;;2616712;39;20521;-64
2022/10/14 16:49:50;;;;;;;;;;;;;;;;;;2615792;54;20061;-65
2022/10/14 16:52:20;;;;;;;;;;;;;;;;;;2616157;54;20018;-65
2022/10/14 16:54:49;;;;;;;;;;;;;;;;;;2616450;54;20042;-64
2022/10/14 16:57:19;;;;;;;;;;;;;;;;;;2616283;54;20033;-65
2022/10/14 16:59:48;;;;;;;;;;;;;;;;;;2616069;54;20049;-64
2022/10/14 17:02:18;;;;;;;;;;;;;;;;;;2615905;39;20468;-65
2022/10/14 17:04:48;;;;;;;;;;;;;;;;;;2615964;54;20026;-64
2022/10/14 17:07:17;;;;;;;;;;;;;;;;;;2616732;39;20607;-64
2022/10/14 17:09:47;;;;;;;;;;;;;;;;;;2616665;54;20579;-65
2022/10/14 17:12:16;;;;;;;;;;;;;;;;;;2616635;54;20065;-65
2022/10/14 17:14:45;;;;;;;;;;;;;;;;;;2616815;54;20070;-63